sensor_id;sensor_type;location;lat;lon;timestamp;P1;durP1;ratioP1;P2;durP2;ratioP2
80975;SDS011;70437;49.466;11.002;2024-01-15T00:00:23;27.95;;;9.40;;
80975;SDS011;70437;49.466;11.002;2024-01-15T00:02:56;26.25;;;8.73;;
80975;SDS011;70437;49.466;11.002;2024-01-15T00:05:26;23.77;;;8.15;;
80975;SDS011;70437;49.466;11.002;2024-01-15T00:07:55;31.77;;;10.00;;
80975;SDS011;70437;49.466;11.002;2024-01-15T00:10:24;28.73;;;8.35;;
80975;SDS011;70437;49.466;11.002;2024-01-15T00:12:56;26.35;;;9.02;;
80975;SDS011;70437;49.466;11.002;2024-01-15T00:15:25;30.27;;;9.52;;
80975;SDS011;70437;49.466;11.002;2024-01-15T00:17:56;21.33;;;8.02;;
80975;SDS011;70437;49.466;11.002;2024-01-15T00:20:28;32.42;;;9.48;;
80975;SDS011;70437;49.466;11.002;2024-01-15T00:22:57;21.15;;;7.28;;
80975;SDS011;70437;49.466;11.002;2024-01-15T00:25:27;23.77;;;8.48;;
80975;SDS011;70437;49.466;11.002;2024-01-15T00:27:58;21.40;;;6.88;;
80975;SDS011;70437;49.466;11.002;2024-01-15T00:30:27;22.88;;;8.02;;
80975;SDS011;70437;49.466;11.002;2024-01-15T00:32:56;25.30;;;9.15;;
80975;SDS011;70437;49.466;11.002;2024-01-15T00:35:27;26.25;;;7.57;;
80975;SDS011;70437;49.466;11.002;2024-01-15T00:37:56;27.42;;;8.48;;
80975;SDS011;70437;49.466;11.002;2024-01-15T00:40:26;24.38;;;7.90;;
80975;SDS011;70437;49.466;11.002;2024-01-15T00:43:00;19.58;;;7.82;;
80975;SDS011;70437;49.466;11.002;2024-01-15T00:45:29;18.50;;;7.88;;
80975;SDS011;70437;49.466;11.002;2024-01-15T00:47:58;22.52;;;8.27;;
80975;SDS011;70437;49.466;11.002;2024-01-15T00:50:28;22.75;;;8.50;;
80975;SDS011;70437;49.466;11.002;2024-01-15T00:52:58;30.83;;;11.40;;
80975;SDS011;70437;49.466;11.002;2024-01-15T00:55:28;25.25;;;8.70;;
80975;SDS011;70437;49.466;11.002;2024-01-15T00:58:00;19.35;;;7.80;;
80975;SDS011;70437;49.466;11.002;2024-01-15T01:00:29;23.75;;;8.25;;
80975;SDS011;70437;49.466;11.002;2024-01-15T01:03:01;23.55;;;8.77;;
80975;SDS011;70437;49.466;11.002;2024-01-15T01:05:30;17.73;;;6.03;;
80975;SDS011;70437;49.466;11.002;2024-01-15T01:07:59;25.83;;;7.82;;
80975;SDS011;70437;49.466;11.002;2024-01-15T01:10:29;21.80;;;7.35;;
80975;SDS011;70437;49.466;11.002;2024-01-15T01:13:01;27.20;;;7.60;;
80975;SDS011;70437;49.466;11.002;2024-01-15T01:15:31;24.52;;;7.40;;
80975;SDS011;70437;49.466;11.002;2024-01-15T01:18:03;28.95;;;8.23;;
80975;SDS011;70437;49.466;11.002;2024-01-15T01:20:33;19.42;;;6.53;;
80975;SDS011;70437;49.466;11.002;2024-01-15T01:23:05;30.77;;;8.02;;
80975;SDS011;70437;49.466;11.002;2024-01-15T01:25:36;27.30;;;7.55;;
80975;SDS011;70437;49.466;11.002;2024-01-15T01:28:06;22.58;;;7.55;;
80975;SDS011;70437;49.466;11.002;2024-01-15T01:33:08;24.70;;;7.50;;
80975;SDS011;70437;49.466;11.002;2024-01-15T01:35:37;31.85;;;10.32;;
80975;SDS011;70437;49.466;11.002;2024-01-15T01:38:06;30.50;;;9.65;;
80975;SDS011;70437;49.466;11.002;2024-01-15T01:40:36;23.65;;;7.93;;
80975;SDS011;70437;49.466;11.002;2024-01-15T01:43:08;25.23;;;7.65;;
80975;SDS011;70437;49.466;11.002;2024-01-15T01:45:38;27.25;;;6.88;;
80975;SDS011;70437;49.466;11.002;2024-01-15T01:48:07;31.27;;;9.18;;
80975;SDS011;70437;49.466;11.002;2024-01-15T01:50:37;33.38;;;9.63;;
80975;SDS011;70437;49.466;11.002;2024-01-15T01:53:06;31.42;;;10.38;;
80975;SDS011;70437;49.466;11.002;2024-01-15T01:55:37;27.58;;;7.78;;
80975;SDS011;70437;49.466;11.002;2024-01-15T01:58:08;33.85;;;10.30;;
80975;SDS011;70437;49.466;11.002;2024-01-15T02:00:38;32.22;;;9.05;;
80975;SDS011;70437;49.466;11.002;2024-01-15T02:03:07;29.73;;;8.85;;
80975;SDS011;70437;49.466;11.002;2024-01-15T02:05:39;32.20;;;10.88;;
80975;SDS011;70437;49.466;11.002;2024-01-15T02:08:12;29.25;;;10.93;;
80975;SDS011;70437;49.466;11.002;2024-01-15T02:10:43;29.23;;;9.35;;
80975;SDS011;70437;49.466;11.002;2024-01-15T02:13:14;25.30;;;9.63;;
80975;SDS011;70437;49.466;11.002;2024-01-15T02:15:49;25.98;;;9.63;;
80975;SDS011;70437;49.466;11.002;2024-01-15T02:18:18;24.95;;;7.68;;
80975;SDS011;70437;49.466;11.002;2024-01-15T02:20:48;26.55;;;8.63;;
80975;SDS011;70437;49.466;11.002;2024-01-15T02:23:18;29.10;;;10.38;;
80975;SDS011;70437;49.466;11.002;2024-01-15T02:25:48;28.20;;;8.90;;
80975;SDS011;70437;49.466;11.002;2024-01-15T02:28:19;25.45;;;9.60;;
80975;SDS011;70437;49.466;11.002;2024-01-15T02:30:50;22.10;;;8.40;;
80975;SDS011;70437;49.466;11.002;2024-01-15T02:33:21;22.83;;;8.32;;
80975;SDS011;70437;49.466;11.002;2024-01-15T02:35:52;19.83;;;7.28;;
80975;SDS011;70437;49.466;11.002;2024-01-15T02:38:22;30.83;;;10.27;;
80975;SDS011;70437;49.466;11.002;2024-01-15T02:40:51;26.00;;;8.40;;
80975;SDS011;70437;49.466;11.002;2024-01-15T02:43:20;26.20;;;8.48;;
80975;SDS011;70437;49.466;11.002;2024-01-15T02:45:53;24.30;;;8.68;;
80975;SDS011;70437;49.466;11.002;2024-01-15T02:48:23;26.45;;;8.63;;
80975;SDS011;70437;49.466;11.002;2024-01-15T02:50:54;30.45;;;10.05;;
80975;SDS011;70437;49.466;11.002;2024-01-15T02:53:25;18.80;;;7.40;;
80975;SDS011;70437;49.466;11.002;2024-01-15T02:55:54;28.70;;;9.55;;
80975;SDS011;70437;49.466;11.002;2024-01-15T02:58:23;24.73;;;8.45;;
80975;SDS011;70437;49.466;11.002;2024-01-15T03:00:52;24.75;;;8.55;;
80975;SDS011;70437;49.466;11.002;2024-01-15T03:03:23;21.02;;;7.65;;
80975;SDS011;70437;49.466;11.002;2024-01-15T03:05:55;26.70;;;9.95;;
80975;SDS011;70437;49.466;11.002;2024-01-15T03:08:26;23.67;;;9.13;;
80975;SDS011;70437;49.466;11.002;2024-01-15T03:10:56;25.35;;;9.02;;
80975;SDS011;70437;49.466;11.002;2024-01-15T03:13:26;24.58;;;8.18;;
80975;SDS011;70437;49.466;11.002;2024-01-15T03:15:55;23.20;;;8.05;;
80975;SDS011;70437;49.466;11.002;2024-01-15T03:18:25;20.58;;;7.03;;
80975;SDS011;70437;49.466;11.002;2024-01-15T03:20:56;16.27;;;6.55;;
80975;SDS011;70437;49.466;11.002;2024-01-15T03:23:31;24.05;;;8.32;;
80975;SDS011;70437;49.466;11.002;2024-01-15T03:26:03;18.58;;;7.28;;
80975;SDS011;70437;49.466;11.002;2024-01-15T03:28:34;18.58;;;7.57;;
80975;SDS011;70437;49.466;11.002;2024-01-15T03:31:05;15.15;;;6.03;;
80975;SDS011;70437;49.466;11.002;2024-01-15T03:33:38;21.58;;;8.52;;
80975;SDS011;70437;49.466;11.002;2024-01-15T03:36:08;20.75;;;7.95;;
80975;SDS011;70437;49.466;11.002;2024-01-15T03:38:42;19.85;;;7.45;;
80975;SDS011;70437;49.466;11.002;2024-01-15T03:41:16;19.48;;;7.82;;
80975;SDS011;70437;49.466;11.002;2024-01-15T03:43:47;19.45;;;7.80;;
80975;SDS011;70437;49.466;11.002;2024-01-15T03:46:16;14.27;;;5.32;;
80975;SDS011;70437;49.466;11.002;2024-01-15T03:48:46;18.08;;;8.15;;
80975;SDS011;70437;49.466;11.002;2024-01-15T03:51:17;20.77;;;7.50;;
80975;SDS011;70437;49.466;11.002;2024-01-15T03:53:52;19.50;;;7.35;;
80975;SDS011;70437;49.466;11.002;2024-01-15T03:56:24;15.18;;;5.28;;
80975;SDS011;70437;49.466;11.002;2024-01-15T03:58:54;20.08;;;8.18;;
80975;SDS011;70437;49.466;11.002;2024-01-15T04:01:28;16.17;;;6.93;;
80975;SDS011;70437;49.466;11.002;2024-01-15T04:03:56;22.33;;;8.90;;
80975;SDS011;70437;49.466;11.002;2024-01-15T04:06:26;14.45;;;6.10;;
80975;SDS011;70437;49.466;11.002;2024-01-15T04:08:57;19.17;;;7.20;;
80975;SDS011;70437;49.466;11.002;2024-01-15T04:11:27;17.98;;;7.15;;
80975;SDS011;70437;49.466;11.002;2024-01-15T04:13:56;16.45;;;5.90;;
80975;SDS011;70437;49.466;11.002;2024-01-15T04:16:26;13.07;;;5.15;;
80975;SDS011;70437;49.466;11.002;2024-01-15T04:18:55;17.92;;;6.40;;
80975;SDS011;70437;49.466;11.002;2024-01-15T04:21:24;20.17;;;6.40;;
80975;SDS011;70437;49.466;11.002;2024-01-15T04:24:04;15.50;;;6.18;;
80975;SDS011;70437;49.466;11.002;2024-01-15T04:26:34;19.02;;;7.28;;
80975;SDS011;70437;49.466;11.002;2024-01-15T04:29:03;16.55;;;7.00;;
80975;SDS011;70437;49.466;11.002;2024-01-15T04:31:33;16.75;;;6.65;;
80975;SDS011;70437;49.466;11.002;2024-01-15T04:34:03;18.85;;;7.10;;
80975;SDS011;70437;49.466;11.002;2024-01-15T04:36:38;18.90;;;6.22;;
80975;SDS011;70437;49.466;11.002;2024-01-15T04:39:09;21.08;;;7.18;;
80975;SDS011;70437;49.466;11.002;2024-01-15T04:41:40;21.33;;;7.10;;
80975;SDS011;70437;49.466;11.002;2024-01-15T04:44:10;21.60;;;8.68;;
80975;SDS011;70437;49.466;11.002;2024-01-15T04:46:42;17.05;;;6.45;;
80975;SDS011;70437;49.466;11.002;2024-01-15T04:49:13;14.90;;;5.80;;
80975;SDS011;70437;49.466;11.002;2024-01-15T04:51:44;23.23;;;8.18;;
80975;SDS011;70437;49.466;11.002;2024-01-15T04:54:15;21.75;;;8.38;;
80975;SDS011;70437;49.466;11.002;2024-01-15T04:56:49;22.00;;;8.02;;
80975;SDS011;70437;49.466;11.002;2024-01-15T04:59:19;13.23;;;5.43;;
80975;SDS011;70437;49.466;11.002;2024-01-15T05:01:52;16.90;;;7.43;;
80975;SDS011;70437;49.466;11.002;2024-01-15T05:04:24;18.25;;;5.55;;
80975;SDS011;70437;49.466;11.002;2024-01-15T05:06:54;22.25;;;7.90;;
80975;SDS011;70437;49.466;11.002;2024-01-15T05:09:28;22.20;;;7.63;;
80975;SDS011;70437;49.466;11.002;2024-01-15T05:11:59;17.27;;;5.93;;
80975;SDS011;70437;49.466;11.002;2024-01-15T05:14:29;12.60;;;6.45;;
80975;SDS011;70437;49.466;11.002;2024-01-15T05:17:00;14.93;;;6.38;;
80975;SDS011;70437;49.466;11.002;2024-01-15T05:19:33;21.67;;;7.57;;
80975;SDS011;70437;49.466;11.002;2024-01-15T05:22:03;18.73;;;7.65;;
80975;SDS011;70437;49.466;11.002;2024-01-15T05:24:35;18.55;;;6.50;;
80975;SDS011;70437;49.466;11.002;2024-01-15T05:27:06;14.10;;;6.00;;
80975;SDS011;70437;49.466;11.002;2024-01-15T05:29:36;15.15;;;5.18;;
80975;SDS011;70437;49.466;11.002;2024-01-15T05:32:05;17.48;;;6.47;;
80975;SDS011;70437;49.466;11.002;2024-01-15T05:34:35;20.00;;;6.00;;
80975;SDS011;70437;49.466;11.002;2024-01-15T05:37:04;20.48;;;5.68;;
80975;SDS011;70437;49.466;11.002;2024-01-15T05:39:35;18.60;;;6.40;;
80975;SDS011;70437;49.466;11.002;2024-01-15T05:42:06;13.55;;;6.00;;
80975;SDS011;70437;49.466;11.002;2024-01-15T05:44:36;18.20;;;7.05;;
80975;SDS011;70437;49.466;11.002;2024-01-15T05:47:07;16.92;;;7.57;;
80975;SDS011;70437;49.466;11.002;2024-01-15T05:49:47;11.50;;;4.78;;
80975;SDS011;70437;49.466;11.002;2024-01-15T05:52:18;17.38;;;7.18;;
80975;SDS011;70437;49.466;11.002;2024-01-15T05:54:55;17.85;;;7.43;;
80975;SDS011;70437;49.466;11.002;2024-01-15T05:57:26;17.73;;;7.00;;
80975;SDS011;70437;49.466;11.002;2024-01-15T05:59:58;17.08;;;7.13;;
80975;SDS011;70437;49.466;11.002;2024-01-15T06:02:32;16.35;;;6.60;;
80975;SDS011;70437;49.466;11.002;2024-01-15T06:05:02;20.75;;;6.15;;
80975;SDS011;70437;49.466;11.002;2024-01-15T06:07:31;18.10;;;7.55;;
80975;SDS011;70437;49.466;11.002;2024-01-15T06:10:02;15.32;;;5.75;;
80975;SDS011;70437;49.466;11.002;2024-01-15T06:12:33;17.10;;;5.85;;
80975;SDS011;70437;49.466;11.002;2024-01-15T06:15:03;16.48;;;6.35;;
80975;SDS011;70437;49.466;11.002;2024-01-15T06:17:36;17.65;;;7.32;;
80975;SDS011;70437;49.466;11.002;2024-01-15T06:20:06;16.17;;;7.07;;
80975;SDS011;70437;49.466;11.002;2024-01-15T06:22:47;18.33;;;6.00;;
80975;SDS011;70437;49.466;11.002;2024-01-15T06:25:18;17.33;;;6.88;;
80975;SDS011;70437;49.466;11.002;2024-01-15T06:27:49;18.52;;;6.47;;
80975;SDS011;70437;49.466;11.002;2024-01-15T06:30:18;17.65;;;6.65;;
80975;SDS011;70437;49.466;11.002;2024-01-15T06:32:51;19.63;;;7.50;;
80975;SDS011;70437;49.466;11.002;2024-01-15T06:35:24;18.75;;;6.28;;
80975;SDS011;70437;49.466;11.002;2024-01-15T06:37:57;23.45;;;7.15;;
80975;SDS011;70437;49.466;11.002;2024-01-15T06:40:28;21.67;;;6.90;;
80975;SDS011;70437;49.466;11.002;2024-01-15T06:43:01;18.40;;;7.60;;
80975;SDS011;70437;49.466;11.002;2024-01-15T06:45:31;16.40;;;7.07;;
80975;SDS011;70437;49.466;11.002;2024-01-15T06:48:02;16.00;;;7.07;;
80975;SDS011;70437;49.466;11.002;2024-01-15T06:50:32;18.48;;;6.97;;
80975;SDS011;70437;49.466;11.002;2024-01-15T06:53:07;17.95;;;7.03;;
80975;SDS011;70437;49.466;11.002;2024-01-15T06:55:42;13.38;;;6.20;;
80975;SDS011;70437;49.466;11.002;2024-01-15T06:58:13;12.80;;;6.20;;
80975;SDS011;70437;49.466;11.002;2024-01-15T07:00:42;15.75;;;6.28;;
80975;SDS011;70437;49.466;11.002;2024-01-15T07:03:11;19.40;;;6.72;;
80975;SDS011;70437;49.466;11.002;2024-01-15T07:05:40;13.52;;;5.68;;
80975;SDS011;70437;49.466;11.002;2024-01-15T07:08:13;15.65;;;7.00;;
80975;SDS011;70437;49.466;11.002;2024-01-15T07:10:45;15.30;;;6.40;;
80975;SDS011;70437;49.466;11.002;2024-01-15T07:13:14;14.93;;;6.03;;
80975;SDS011;70437;49.466;11.002;2024-01-15T07:15:44;16.52;;;7.32;;
80975;SDS011;70437;49.466;11.002;2024-01-15T07:18:13;19.40;;;7.25;;
80975;SDS011;70437;49.466;11.002;2024-01-15T07:20:43;17.60;;;6.47;;
80975;SDS011;70437;49.466;11.002;2024-01-15T07:23:12;21.88;;;7.97;;
80975;SDS011;70437;49.466;11.002;2024-01-15T07:25:41;19.08;;;8.15;;
80975;SDS011;70437;49.466;11.002;2024-01-15T07:28:12;20.95;;;6.90;;
80975;SDS011;70437;49.466;11.002;2024-01-15T07:30:42;15.52;;;5.68;;
80975;SDS011;70437;49.466;11.002;2024-01-15T07:33:12;14.40;;;6.32;;
80975;SDS011;70437;49.466;11.002;2024-01-15T07:35:42;17.10;;;6.53;;
80975;SDS011;70437;49.466;11.002;2024-01-15T07:38:17;14.95;;;5.82;;
80975;SDS011;70437;49.466;11.002;2024-01-15T07:40:45;17.40;;;6.75;;
80975;SDS011;70437;49.466;11.002;2024-01-15T07:43:22;14.57;;;6.07;;
80975;SDS011;70437;49.466;11.002;2024-01-15T07:45:52;13.23;;;5.32;;
80975;SDS011;70437;49.466;11.002;2024-01-15T07:48:23;13.15;;;5.95;;
80975;SDS011;70437;49.466;11.002;2024-01-15T07:50:53;15.90;;;6.50;;
80975;SDS011;70437;49.466;11.002;2024-01-15T07:53:22;13.98;;;5.47;;
80975;SDS011;70437;49.466;11.002;2024-01-15T07:55:51;14.57;;;5.68;;
80975;SDS011;70437;49.466;11.002;2024-01-15T07:58:27;16.05;;;6.05;;
80975;SDS011;70437;49.466;11.002;2024-01-15T08:00:58;14.25;;;6.03;;
80975;SDS011;70437;49.466;11.002;2024-01-15T08:03:28;15.18;;;6.60;;
80975;SDS011;70437;49.466;11.002;2024-01-15T08:05:59;14.77;;;5.60;;
80975;SDS011;70437;49.466;11.002;2024-01-15T08:08:31;27.55;;;8.75;;
80975;SDS011;70437;49.466;11.002;2024-01-15T08:11:00;14.43;;;5.10;;
80975;SDS011;70437;49.466;11.002;2024-01-15T08:13:32;13.38;;;5.82;;
80975;SDS011;70437;49.466;11.002;2024-01-15T08:16:04;12.18;;;5.40;;
80975;SDS011;70437;49.466;11.002;2024-01-15T08:18:34;11.35;;;5.72;;
80975;SDS011;70437;49.466;11.002;2024-01-15T08:21:04;13.23;;;5.85;;
80975;SDS011;70437;49.466;11.002;2024-01-15T08:23:35;14.43;;;6.13;;
80975;SDS011;70437;49.466;11.002;2024-01-15T08:26:06;14.85;;;5.65;;
80975;SDS011;70437;49.466;11.002;2024-01-15T08:28:37;10.63;;;4.65;;
80975;SDS011;70437;49.466;11.002;2024-01-15T08:31:22;13.15;;;6.60;;
80975;SDS011;70437;49.466;11.002;2024-01-15T08:33:52;12.02;;;6.00;;
80975;SDS011;70437;49.466;11.002;2024-01-15T08:36:23;14.93;;;6.20;;
80975;SDS011;70437;49.466;11.002;2024-01-15T08:38:53;14.23;;;6.30;;
80975;SDS011;70437;49.466;11.002;2024-01-15T08:41:23;21.13;;;7.75;;
80975;SDS011;70437;49.466;11.002;2024-01-15T08:43:55;14.55;;;6.93;;
80975;SDS011;70437;49.466;11.002;2024-01-15T08:46:24;16.40;;;6.75;;
80975;SDS011;70437;49.466;11.002;2024-01-15T08:48:53;15.82;;;6.18;;
80975;SDS011;70437;49.466;11.002;2024-01-15T08:51:23;13.38;;;5.93;;
80975;SDS011;70437;49.466;11.002;2024-01-15T08:53:55;17.15;;;7.40;;
80975;SDS011;70437;49.466;11.002;2024-01-15T08:56:25;12.48;;;5.78;;
80975;SDS011;70437;49.466;11.002;2024-01-15T08:59:00;11.32;;;5.30;;
80975;SDS011;70437;49.466;11.002;2024-01-15T09:01:30;15.90;;;6.72;;
80975;SDS011;70437;49.466;11.002;2024-01-15T09:06:33;13.30;;;6.40;;
80975;SDS011;70437;49.466;11.002;2024-01-15T09:09:03;10.95;;;5.10;;
80975;SDS011;70437;49.466;11.002;2024-01-15T09:11:34;13.43;;;5.65;;
80975;SDS011;70437;49.466;11.002;2024-01-15T09:14:05;13.13;;;6.72;;
80975;SDS011;70437;49.466;11.002;2024-01-15T09:16:34;19.60;;;7.95;;
80975;SDS011;70437;49.466;11.002;2024-01-15T09:19:04;14.45;;;6.30;;
80975;SDS011;70437;49.466;11.002;2024-01-15T09:21:33;15.65;;;6.75;;
80975;SDS011;70437;49.466;11.002;2024-01-15T09:24:05;14.32;;;6.18;;
80975;SDS011;70437;49.466;11.002;2024-01-15T09:26:36;13.05;;;6.47;;
80975;SDS011;70437;49.466;11.002;2024-01-15T09:29:08;16.23;;;6.82;;
80975;SDS011;70437;49.466;11.002;2024-01-15T09:31:45;11.20;;;5.30;;
80975;SDS011;70437;49.466;11.002;2024-01-15T09:34:16;12.57;;;5.75;;
80975;SDS011;70437;49.466;11.002;2024-01-15T09:36:46;11.85;;;6.15;;
80975;SDS011;70437;49.466;11.002;2024-01-15T09:39:17;14.48;;;6.20;;
80975;SDS011;70437;49.466;11.002;2024-01-15T09:41:47;14.88;;;6.15;;
80975;SDS011;70437;49.466;11.002;2024-01-15T09:44:26;14.25;;;5.85;;
80975;SDS011;70437;49.466;11.002;2024-01-15T09:46:57;13.40;;;5.22;;
80975;SDS011;70437;49.466;11.002;2024-01-15T09:49:33;12.82;;;5.00;;
80975;SDS011;70437;49.466;11.002;2024-01-15T09:52:03;12.02;;;5.60;;
80975;SDS011;70437;49.466;11.002;2024-01-15T09:54:39;12.45;;;5.35;;
80975;SDS011;70437;49.466;11.002;2024-01-15T09:57:11;12.93;;;5.18;;
80975;SDS011;70437;49.466;11.002;2024-01-15T09:59:43;12.88;;;5.82;;
80975;SDS011;70437;49.466;11.002;2024-01-15T10:02:17;12.05;;;4.90;;
80975;SDS011;70437;49.466;11.002;2024-01-15T10:04:47;13.43;;;5.75;;
80975;SDS011;70437;49.466;11.002;2024-01-15T10:07:19;14.27;;;5.43;;
80975;SDS011;70437;49.466;11.002;2024-01-15T10:09:52;12.45;;;5.75;;
80975;SDS011;70437;49.466;11.002;2024-01-15T10:12:24;14.07;;;6.65;;
80975;SDS011;70437;49.466;11.002;2024-01-15T10:14:57;11.35;;;5.68;;
80975;SDS011;70437;49.466;11.002;2024-01-15T10:17:27;16.92;;;6.35;;
80975;SDS011;70437;49.466;11.002;2024-01-15T10:19:58;12.38;;;6.10;;
80975;SDS011;70437;49.466;11.002;2024-01-15T10:22:29;16.80;;;6.78;;
80975;SDS011;70437;49.466;11.002;2024-01-15T10:24:58;11.02;;;4.88;;
80975;SDS011;70437;49.466;11.002;2024-01-15T10:27:27;13.20;;;5.85;;
80975;SDS011;70437;49.466;11.002;2024-01-15T10:30:00;11.55;;;5.90;;
80975;SDS011;70437;49.466;11.002;2024-01-15T10:32:31;12.20;;;5.78;;
80975;SDS011;70437;49.466;11.002;2024-01-15T10:35:02;11.13;;;4.90;;
80975;SDS011;70437;49.466;11.002;2024-01-15T10:37:35;10.10;;;4.88;;
80975;SDS011;70437;49.466;11.002;2024-01-15T10:40:05;10.15;;;6.50;;
80975;SDS011;70437;49.466;11.002;2024-01-15T10:42:38;10.23;;;5.05;;
80975;SDS011;70437;49.466;11.002;2024-01-15T10:45:10;12.50;;;6.30;;
80975;SDS011;70437;49.466;11.002;2024-01-15T10:47:40;10.63;;;6.18;;
80975;SDS011;70437;49.466;11.002;2024-01-15T10:50:11;10.95;;;5.65;;
80975;SDS011;70437;49.466;11.002;2024-01-15T10:52:44;11.60;;;4.72;;
80975;SDS011;70437;49.466;11.002;2024-01-15T10:55:13;10.00;;;4.22;;
80975;SDS011;70437;49.466;11.002;2024-01-15T10:57:47;11.27;;;4.55;;
80975;SDS011;70437;49.466;11.002;2024-01-15T11:00:20;10.38;;;4.53;;
80975;SDS011;70437;49.466;11.002;2024-01-15T11:02:50;11.13;;;4.43;;
80975;SDS011;70437;49.466;11.002;2024-01-15T11:05:23;10.07;;;4.38;;
80975;SDS011;70437;49.466;11.002;2024-01-15T11:07:56;10.02;;;4.15;;
80975;SDS011;70437;49.466;11.002;2024-01-15T11:10:37;13.20;;;5.05;;
80975;SDS011;70437;49.466;11.002;2024-01-15T11:13:08;10.38;;;4.30;;
80975;SDS011;70437;49.466;11.002;2024-01-15T11:21:40;11.80;;;4.82;;
80975;SDS011;70437;49.466;11.002;2024-01-15T11:24:11;12.65;;;4.95;;
80975;SDS011;70437;49.466;11.002;2024-01-15T11:27:06;10.13;;;4.22;;
80975;SDS011;70437;49.466;11.002;2024-01-15T11:29:37;9.70;;;4.20;;
80975;SDS011;70437;49.466;11.002;2024-01-15T11:32:08;12.40;;;4.95;;
80975;SDS011;70437;49.466;11.002;2024-01-15T11:34:54;13.50;;;4.82;;
80975;SDS011;70437;49.466;11.002;2024-01-15T11:40:36;13.10;;;5.90;;
80975;SDS011;70437;49.466;11.002;2024-01-15T11:43:07;8.30;;;4.30;;
80975;SDS011;70437;49.466;11.002;2024-01-15T11:45:38;9.98;;;4.55;;
80975;SDS011;70437;49.466;11.002;2024-01-15T11:48:12;11.48;;;5.53;;
80975;SDS011;70437;49.466;11.002;2024-01-15T11:50:50;12.30;;;4.85;;
80975;SDS011;70437;49.466;11.002;2024-01-15T11:53:23;12.00;;;4.10;;
80975;SDS011;70437;49.466;11.002;2024-01-15T11:55:59;14.35;;;4.90;;
80975;SDS011;70437;49.466;11.002;2024-01-15T11:58:30;9.93;;;4.40;;
80975;SDS011;70437;49.466;11.002;2024-01-15T12:01:02;13.75;;;4.93;;
80975;SDS011;70437;49.466;11.002;2024-01-15T12:03:35;12.77;;;5.90;;
80975;SDS011;70437;49.466;11.002;2024-01-15T12:06:05;10.73;;;4.50;;
80975;SDS011;70437;49.466;11.002;2024-01-15T12:08:40;11.63;;;4.90;;
80975;SDS011;70437;49.466;11.002;2024-01-15T12:11:11;8.90;;;4.85;;
80975;SDS011;70437;49.466;11.002;2024-01-15T12:13:45;9.43;;;4.47;;
80975;SDS011;70437;49.466;11.002;2024-01-15T12:16:15;9.00;;;3.40;;
80975;SDS011;70437;49.466;11.002;2024-01-15T12:18:48;8.48;;;4.05;;
80975;SDS011;70437;49.466;11.002;2024-01-15T12:21:26;10.20;;;4.38;;
80975;SDS011;70437;49.466;11.002;2024-01-15T12:23:58;9.73;;;4.30;;
80975;SDS011;70437;49.466;11.002;2024-01-15T12:26:30;11.35;;;4.53;;
80975;SDS011;70437;49.466;11.002;2024-01-15T12:29:07;10.68;;;4.97;;
80975;SDS011;70437;49.466;11.002;2024-01-15T12:31:42;21.02;;;5.95;;
80975;SDS011;70437;49.466;11.002;2024-01-15T12:34:24;8.70;;;4.35;;
80975;SDS011;70437;49.466;11.002;2024-01-15T12:36:58;11.65;;;5.05;;
80975;SDS011;70437;49.466;11.002;2024-01-15T12:39:30;10.25;;;3.97;;
80975;SDS011;70437;49.466;11.002;2024-01-15T12:42:02;7.68;;;3.95;;
80975;SDS011;70437;49.466;11.002;2024-01-15T12:44:36;9.68;;;4.55;;
80975;SDS011;70437;49.466;11.002;2024-01-15T12:47:11;9.23;;;3.40;;
80975;SDS011;70437;49.466;11.002;2024-01-15T12:49:47;9.75;;;3.95;;
80975;SDS011;70437;49.466;11.002;2024-01-15T12:52:20;17.20;;;5.40;;
80975;SDS011;70437;49.466;11.002;2024-01-15T12:54:51;9.52;;;4.22;;
80975;SDS011;70437;49.466;11.002;2024-01-15T12:57:20;11.55;;;3.72;;
80975;SDS011;70437;49.466;11.002;2024-01-15T12:59:51;12.27;;;4.43;;
80975;SDS011;70437;49.466;11.002;2024-01-15T13:02:20;14.80;;;5.75;;
80975;SDS011;70437;49.466;11.002;2024-01-15T13:04:51;9.57;;;4.50;;
80975;SDS011;70437;49.466;11.002;2024-01-15T13:07:21;11.63;;;5.05;;
80975;SDS011;70437;49.466;11.002;2024-01-15T13:09:51;12.95;;;5.15;;
80975;SDS011;70437;49.466;11.002;2024-01-15T13:12:28;9.23;;;4.00;;
80975;SDS011;70437;49.466;11.002;2024-01-15T13:14:58;12.50;;;4.15;;
80975;SDS011;70437;49.466;11.002;2024-01-15T13:17:27;7.60;;;3.42;;
80975;SDS011;70437;49.466;11.002;2024-01-15T13:19:57;9.13;;;4.68;;
80975;SDS011;70437;49.466;11.002;2024-01-15T13:22:27;9.15;;;3.67;;
80975;SDS011;70437;49.466;11.002;2024-01-15T13:25:00;10.40;;;3.85;;
80975;SDS011;70437;49.466;11.002;2024-01-15T13:27:31;10.75;;;4.38;;
80975;SDS011;70437;49.466;11.002;2024-01-15T13:30:02;8.02;;;3.50;;
80975;SDS011;70437;49.466;11.002;2024-01-15T13:32:35;8.23;;;4.05;;
80975;SDS011;70437;49.466;11.002;2024-01-15T13:35:07;7.30;;;3.28;;
80975;SDS011;70437;49.466;11.002;2024-01-15T13:37:40;6.88;;;3.17;;
80975;SDS011;70437;49.466;11.002;2024-01-15T13:40:10;11.30;;;3.35;;
80975;SDS011;70437;49.466;11.002;2024-01-15T13:42:49;8.45;;;3.65;;
80975;SDS011;70437;49.466;11.002;2024-01-15T13:45:20;7.80;;;3.13;;
80975;SDS011;70437;49.466;11.002;2024-01-15T13:48:20;7.07;;;3.35;;
80975;SDS011;70437;49.466;11.002;2024-01-15T13:50:53;8.85;;;3.47;;
80975;SDS011;70437;49.466;11.002;2024-01-15T13:53:24;6.75;;;3.17;;
80975;SDS011;70437;49.466;11.002;2024-01-15T13:55:54;6.32;;;3.10;;
80975;SDS011;70437;49.466;11.002;2024-01-15T13:58:24;11.85;;;3.80;;
80975;SDS011;70437;49.466;11.002;2024-01-15T14:00:53;10.82;;;4.13;;
80975;SDS011;70437;49.466;11.002;2024-01-15T14:03:25;7.25;;;3.67;;
80975;SDS011;70437;49.466;11.002;2024-01-15T14:05:57;9.80;;;3.58;;
80975;SDS011;70437;49.466;11.002;2024-01-15T14:08:30;9.68;;;4.20;;
80975;SDS011;70437;49.466;11.002;2024-01-15T14:11:01;12.50;;;4.03;;
80975;SDS011;70437;49.466;11.002;2024-01-15T14:13:34;7.13;;;3.55;;
80975;SDS011;70437;49.466;11.002;2024-01-15T14:16:04;9.88;;;3.85;;
80975;SDS011;70437;49.466;11.002;2024-01-15T14:18:33;8.38;;;3.72;;
80975;SDS011;70437;49.466;11.002;2024-01-15T14:21:07;8.32;;;4.15;;
80975;SDS011;70437;49.466;11.002;2024-01-15T14:23:37;10.73;;;4.82;;
80975;SDS011;70437;49.466;11.002;2024-01-15T14:26:06;7.90;;;4.45;;
80975;SDS011;70437;49.466;11.002;2024-01-15T14:28:36;10.35;;;5.03;;
80975;SDS011;70437;49.466;11.002;2024-01-15T14:31:08;10.13;;;3.83;;
80975;SDS011;70437;49.466;11.002;2024-01-15T14:33:37;9.75;;;4.40;;
80975;SDS011;70437;49.466;11.002;2024-01-15T14:36:11;9.38;;;3.95;;
80975;SDS011;70437;49.466;11.002;2024-01-15T14:38:41;7.63;;;3.47;;
80975;SDS011;70437;49.466;11.002;2024-01-15T14:41:10;7.35;;;3.42;;
80975;SDS011;70437;49.466;11.002;2024-01-15T14:43:41;7.20;;;3.97;;
80975;SDS011;70437;49.466;11.002;2024-01-15T14:46:12;8.90;;;3.65;;
80975;SDS011;70437;49.466;11.002;2024-01-15T14:48:43;7.65;;;3.22;;
80975;SDS011;70437;49.466;11.002;2024-01-15T14:51:15;5.20;;;2.47;;
80975;SDS011;70437;49.466;11.002;2024-01-15T14:53:44;6.55;;;3.13;;
80975;SDS011;70437;49.466;11.002;2024-01-15T14:56:18;7.57;;;3.53;;
80975;SDS011;70437;49.466;11.002;2024-01-15T14:58:49;7.63;;;2.92;;
80975;SDS011;70437;49.466;11.002;2024-01-15T15:01:19;4.63;;;2.53;;